createdAt,value
2023-02-02T00:00:25.492Z,1.30
2023-02-02T00:02:51.909Z,0.80
2023-02-02T00:05:18.397Z,1.50
2023-02-02T00:07:44.847Z,1.80
2023-02-02T00:10:11.276Z,1.45
2023-02-02T00:12:37.694Z,1.27
2023-02-02T00:15:04.376Z,1.98
2023-02-02T00:17:30.882Z,1.47
2023-02-02T00:19:57.401Z,1.00
2023-02-02T00:22:23.941Z,1.65
2023-02-02T00:24:50.413Z,1.08
2023-02-02T00:27:16.874Z,1.67
2023-02-02T00:29:43.520Z,1.67
2023-02-02T00:32:10.176Z,1.05
2023-02-02T00:34:36.885Z,0.85
2023-02-02T00:37:03.502Z,1.17
2023-02-02T00:39:30.107Z,1.23
2023-02-02T00:41:56.665Z,1.20
2023-02-02T00:44:41.831Z,1.55
2023-02-02T00:47:08.316Z,1.45
2023-02-02T00:49:34.732Z,1.00
2023-02-02T00:52:01.123Z,1.20
2023-02-02T00:54:28.571Z,1.10
2023-02-02T00:56:55.029Z,1.05
2023-02-02T00:59:21.671Z,1.10
2023-02-02T01:01:48.244Z,1.00
2023-02-02T01:04:14.847Z,1.50
2023-02-02T01:06:42.240Z,1.30
2023-02-02T01:09:08.974Z,0.80
2023-02-02T01:11:35.422Z,1.50
2023-02-02T01:14:01.984Z,1.15
2023-02-02T01:16:28.897Z,1.00
2023-02-02T01:18:55.604Z,0.80
2023-02-02T01:21:22.848Z,0.75
2023-02-02T01:23:49.529Z,0.63
2023-02-02T01:26:16.400Z,0.70
2023-02-02T01:28:43.189Z,0.75
2023-02-02T01:31:15.433Z,0.30
2023-02-02T01:33:43.705Z,0.77
2023-02-02T01:36:13.497Z,0.63
2023-02-02T01:38:40.273Z,0.70
2023-02-02T01:41:07.294Z,0.45
2023-02-02T01:43:45.493Z,1.33
2023-02-02T01:46:14.063Z,0.70
2023-02-02T01:48:43.864Z,0.30
2023-02-02T01:51:16.461Z,0.50
2023-02-02T01:53:44.913Z,0.32
2023-02-02T01:56:15.492Z,0.70
2023-02-02T01:58:43.412Z,0.63
2023-02-02T02:01:09.910Z,0.40
2023-02-02T02:03:37.570Z,0.55
2023-02-02T02:06:17.231Z,0.70
2023-02-02T02:08:52.243Z,0.50
2023-02-02T02:11:22.751Z,0.82
2023-02-02T02:14:09.871Z,0.50
2023-02-02T02:17:03.350Z,0.40
2023-02-02T02:20:11.658Z,0.45
2023-02-02T02:23:23.959Z,0.60
2023-02-02T02:26:35.185Z,0.50
2023-02-02T02:29:35.687Z,0.55
2023-02-02T02:32:12.335Z,0.70
2023-02-02T02:35:11.978Z,0.63
2023-02-02T02:37:59.313Z,0.60
2023-02-02T02:40:45.485Z,0.70
2023-02-02T02:43:51.286Z,1.67
2023-02-02T02:46:17.817Z,0.90
2023-02-02T02:48:45.367Z,0.85
2023-02-02T02:51:36.872Z,1.40
2023-02-02T02:54:03.926Z,0.88
2023-02-02T02:56:41.719Z,1.17
2023-02-02T02:59:23.037Z,0.70
2023-02-02T03:02:05.669Z,0.88
2023-02-02T03:04:44.404Z,0.97
2023-02-02T03:07:22.971Z,1.50
2023-02-02T03:09:51.338Z,1.00
2023-02-02T03:12:18.273Z,1.15
2023-02-02T03:14:44.693Z,1.10
2023-02-02T03:17:11.261Z,1.07
2023-02-02T03:19:37.857Z,1.30
2023-02-02T03:22:04.467Z,1.20
2023-02-02T03:24:30.893Z,1.33
2023-02-02T03:26:57.573Z,1.17
2023-02-02T03:29:24.081Z,1.43
2023-02-02T03:31:50.831Z,1.75
2023-02-02T03:34:17.319Z,1.17
2023-02-02T03:36:43.778Z,1.15
2023-02-02T03:39:10.376Z,1.15
2023-02-02T03:41:36.952Z,1.50
2023-02-02T03:44:03.492Z,0.95
2023-02-02T03:46:30.035Z,0.85
2023-02-02T03:48:56.457Z,2.08
2023-02-02T03:51:22.880Z,1.67
2023-02-02T03:53:49.297Z,1.30
2023-02-02T03:56:16.403Z,1.88
2023-02-02T03:58:42.806Z,1.25
2023-02-02T04:01:13.337Z,1.05
2023-02-02T04:03:39.758Z,1.40
2023-02-02T04:06:06.296Z,1.70
2023-02-02T04:08:34.068Z,1.30
2023-02-02T04:11:00.653Z,1.15
2023-02-02T04:13:27.141Z,1.27
2023-02-02T04:16:00.486Z,1.67
2023-02-02T04:18:27.447Z,1.17
2023-02-02T04:21:01.036Z,1.15
2023-02-02T04:23:28.571Z,1.40
2023-02-02T04:25:55.354Z,1.90
2023-02-02T04:28:23.921Z,1.35
2023-02-02T04:30:51.523Z,1.30
2023-02-02T04:33:18.493Z,1.40
2023-02-02T04:35:45.619Z,1.10
2023-02-02T04:38:12.698Z,1.02
2023-02-02T04:40:40.687Z,0.90
2023-02-02T04:43:07.216Z,1.33
2023-02-02T04:45:34.607Z,1.40
2023-02-02T04:48:01.141Z,0.90
2023-02-02T04:50:27.561Z,1.80
2023-02-02T04:53:00.008Z,1.98
2023-02-02T04:55:26.732Z,1.53
2023-02-02T04:57:53.270Z,1.13
2023-02-02T05:00:20.070Z,1.52
2023-02-02T05:02:46.613Z,1.08
2023-02-02T05:05:14.367Z,1.13
2023-02-02T05:07:41.352Z,1.30
2023-02-02T05:10:09.844Z,1.23
2023-02-02T05:12:36.561Z,0.90
2023-02-02T05:15:12.003Z,1.55
2023-02-02T05:17:38.546Z,0.90
2023-02-02T05:20:13.885Z,1.60
2023-02-02T05:22:40.772Z,1.40
2023-02-02T05:25:15.543Z,0.68
2023-02-02T05:27:46.246Z,1.20
2023-02-02T05:30:14.283Z,0.85
2023-02-02T05:32:40.694Z,1.03
2023-02-02T05:35:07.982Z,1.02
2023-02-02T05:37:34.417Z,1.40
2023-02-02T05:40:00.766Z,1.90
2023-02-02T05:42:27.555Z,1.10
2023-02-02T05:44:54.039Z,1.50
2023-02-02T05:47:21.752Z,1.33
2023-02-02T05:49:49.491Z,1.25
2023-02-02T05:52:22.206Z,0.77
2023-02-02T05:54:48.757Z,1.48
2023-02-02T05:57:15.271Z,1.00
2023-02-02T05:59:41.908Z,0.77
2023-02-02T06:02:08.353Z,1.38
2023-02-02T06:04:34.730Z,0.95
2023-02-02T06:07:01.301Z,1.00
2023-02-02T06:09:27.688Z,0.80
2023-02-02T06:11:54.177Z,1.65
2023-02-02T06:14:23.505Z,1.00
2023-02-02T06:16:49.960Z,1.13
2023-02-02T06:19:16.408Z,0.93
2023-02-02T06:21:42.788Z,1.20
2023-02-02T06:24:09.488Z,0.95
2023-02-02T06:26:36.662Z,0.90
2023-02-02T06:29:03.612Z,1.20
2023-02-02T06:31:30.248Z,1.27
2023-02-02T06:33:58.439Z,0.97
2023-02-02T06:36:26.682Z,1.00
2023-02-02T06:38:54.837Z,0.88
2023-02-02T06:41:22.154Z,1.27
2023-02-02T06:43:49.671Z,1.10
2023-02-02T06:46:16.979Z,1.17
2023-02-02T06:48:43.698Z,1.20
2023-02-02T06:51:10.080Z,0.90
2023-02-02T06:53:36.694Z,1.42
2023-02-02T06:56:07.116Z,1.40
2023-02-02T06:58:34.484Z,1.20
2023-02-02T07:01:08.980Z,0.95
2023-02-02T07:03:36.139Z,1.02
2023-02-02T07:06:19.705Z,1.30
2023-02-02T07:09:01.721Z,0.93
2023-02-02T07:11:31.157Z,1.00
2023-02-02T07:13:57.892Z,0.93
2023-02-02T07:16:24.374Z,0.77
2023-02-02T07:18:50.980Z,0.90
2023-02-02T07:21:20.072Z,1.15
2023-02-02T07:23:46.929Z,1.67
2023-02-02T07:26:14.417Z,0.90
2023-02-02T07:28:41.078Z,1.00
2023-02-02T07:31:15.462Z,1.33
2023-02-02T07:33:43.200Z,1.27
2023-02-02T07:36:11.407Z,1.47
2023-02-02T07:38:38.222Z,1.35
2023-02-02T07:41:05.128Z,1.33
2023-02-02T07:43:31.625Z,1.17
2023-02-02T07:46:04.410Z,1.63
2023-02-02T07:48:31.047Z,1.73
2023-02-02T07:51:05.879Z,1.30
2023-02-02T07:53:33.283Z,1.00
2023-02-02T07:56:11.517Z,1.20
2023-02-02T07:58:38.307Z,0.93
2023-02-02T08:01:07.019Z,1.67
2023-02-02T08:03:34.703Z,0.93
2023-02-02T08:06:01.699Z,1.20
2023-02-02T08:08:28.411Z,1.08
2023-02-02T08:10:54.945Z,2.22
2023-02-02T08:13:21.755Z,1.40
2023-02-02T08:15:48.380Z,1.05
2023-02-02T08:18:14.814Z,1.10
2023-02-02T08:20:41.364Z,1.05
2023-02-02T08:23:13.415Z,0.90
2023-02-02T08:25:40.209Z,1.30
2023-02-02T08:28:06.668Z,1.15
2023-02-02T08:30:35.245Z,1.25
2023-02-02T08:33:01.692Z,1.45
2023-02-02T08:35:28.139Z,1.05
2023-02-02T08:37:54.588Z,1.70
2023-02-02T08:40:21.106Z,1.58
2023-02-02T08:42:51.134Z,1.02
2023-02-02T08:46:02.921Z,1.48
2023-02-02T08:48:17.089Z,0.70
2023-02-02T08:50:43.567Z,0.87
2023-02-02T08:53:10.099Z,0.68
2023-02-02T08:55:36.511Z,1.17
2023-02-02T08:58:02.926Z,1.65
2023-02-02T09:00:29.350Z,0.90
2023-02-02T09:02:55.759Z,0.90
2023-02-02T09:05:22.354Z,1.90
2023-02-02T09:07:49.377Z,1.15
2023-02-02T09:10:16.192Z,1.33
2023-02-02T09:12:42.632Z,0.77
2023-02-02T09:15:09.534Z,0.83
2023-02-02T09:17:36.467Z,1.20
2023-02-02T09:20:03.274Z,1.05
2023-02-02T09:22:29.751Z,1.17
2023-02-02T09:24:56.229Z,1.30
2023-02-02T09:27:22.629Z,1.77
2023-02-02T09:29:49.164Z,1.02
2023-02-02T09:32:16.008Z,0.70
2023-02-02T09:34:42.365Z,0.90
2023-02-02T09:37:09.046Z,1.15
2023-02-02T09:39:35.648Z,0.93
2023-02-02T09:42:13.777Z,1.08
2023-02-02T09:45:03.513Z,1.05
2023-02-02T09:47:41.797Z,1.15
2023-02-02T09:50:21.081Z,1.33
2023-02-02T09:53:00.975Z,0.90
2023-02-02T09:55:43.052Z,1.40
2023-02-02T09:58:22.167Z,0.70
2023-02-02T10:01:03.184Z,1.52
2023-02-02T10:03:58.830Z,0.88
2023-02-02T10:06:38.747Z,0.87
2023-02-02T10:09:08.288Z,0.80
2023-02-02T10:11:44.885Z,0.95
2023-02-02T10:14:46.325Z,0.82
2023-02-02T10:17:42.112Z,1.15
2023-02-02T10:20:38.580Z,1.17
2023-02-02T10:23:17.175Z,0.95
2023-02-02T10:25:52.548Z,1.73
2023-02-02T10:28:20.485Z,1.60
2023-02-02T10:30:55.731Z,1.20
2023-02-02T10:33:34.314Z,1.27
2023-02-02T10:36:11.150Z,1.33
2023-02-02T10:38:47.362Z,1.20
2023-02-02T10:41:32.169Z,0.90
2023-02-02T10:44:37.153Z,1.17
2023-02-02T10:47:09.664Z,0.93
2023-02-02T10:49:40.737Z,1.42
2023-02-02T10:52:16.958Z,0.85
2023-02-02T10:55:03.965Z,1.65
2023-02-02T10:57:35.443Z,1.40
2023-02-02T11:00:11.258Z,0.90
2023-02-02T11:02:37.912Z,0.95
2023-02-02T11:05:23.207Z,0.82
2023-02-02T11:07:52.145Z,1.42
2023-02-02T11:10:18.691Z,0.60
2023-02-02T11:12:53.125Z,1.17
2023-02-02T11:15:30.565Z,1.65
2023-02-02T11:18:14.727Z,0.95
2023-02-02T11:20:41.676Z,0.85
2023-02-02T11:23:18.232Z,0.93
2023-02-02T11:25:44.789Z,0.80
2023-02-02T11:28:20.570Z,0.90
2023-02-02T11:30:50.646Z,1.52
2023-02-02T11:33:28.391Z,1.20
2023-02-02T11:36:01.667Z,1.15
2023-02-02T11:38:28.768Z,0.83
2023-02-02T11:41:04.047Z,0.98
2023-02-02T11:43:41.418Z,0.70
2023-02-02T11:46:24.900Z,0.90
2023-02-02T11:48:59.466Z,0.80
2023-02-02T11:51:28.151Z,1.30
2023-02-02T11:54:25.826Z,0.82
2023-02-02T11:56:55.434Z,0.75
2023-02-02T11:59:36.687Z,0.75
2023-02-02T12:02:29.311Z,0.73
2023-02-02T12:05:14.748Z,0.60
2023-02-02T12:07:43.325Z,0.70
2023-02-02T12:10:19.471Z,0.65
2023-02-02T12:12:58.901Z,0.60
2023-02-02T12:15:54.491Z,0.70
2023-02-02T12:18:47.313Z,1.13
2023-02-02T12:21:38.147Z,0.77
2023-02-02T12:24:24.645Z,0.75
2023-02-02T12:27:00.321Z,0.88
2023-02-02T12:29:43.985Z,0.88
2023-02-02T12:32:29.979Z,0.80
2023-02-02T12:35:30.800Z,1.30
2023-02-02T12:38:42.874Z,0.88
2023-02-02T12:41:30.465Z,0.88
2023-02-02T12:44:32.402Z,1.08
2023-02-02T12:47:05.030Z,0.80
2023-02-02T12:49:53.038Z,0.47
2023-02-02T12:52:57.173Z,0.55
2023-02-02T12:55:42.364Z,0.85
2023-02-02T12:58:16.757Z,0.73
2023-02-02T13:00:58.789Z,0.97
2023-02-02T13:03:45.273Z,0.90
2023-02-02T13:06:30.707Z,1.15
2023-02-02T13:09:09.890Z,0.65
2023-02-02T13:11:45.772Z,0.68
2023-02-02T13:14:24.973Z,0.53
2023-02-02T13:16:56.009Z,1.05
2023-02-02T13:19:35.323Z,0.90
2023-02-02T13:22:07.264Z,0.65
2023-02-02T13:24:38.660Z,0.50
2023-02-02T13:27:07.687Z,0.80
2023-02-02T13:29:55.643Z,0.73
2023-02-02T13:32:27.573Z,0.70
2023-02-02T13:35:01.130Z,0.60
2023-02-02T13:37:39.665Z,0.70
2023-02-02T13:40:26.221Z,0.97
2023-02-02T13:43:23.679Z,0.80
2023-02-02T13:46:25.704Z,0.82
2023-02-02T13:49:10.114Z,0.50
2023-02-02T13:51:50.790Z,0.90
2023-02-02T13:54:52.844Z,2.23
2023-02-02T13:57:37.090Z,0.90
2023-02-02T14:00:18.761Z,0.57
2023-02-02T14:02:49.386Z,0.43
2023-02-02T14:05:27.407Z,0.50
2023-02-02T14:08:03.062Z,0.30
2023-02-02T14:10:44.388Z,0.20
2023-02-02T14:13:32.570Z,0.30
2023-02-02T14:16:02.492Z,0.73
2023-02-02T14:18:59.780Z,0.28
2023-02-02T14:21:32.505Z,0.23
2023-02-02T14:24:38.988Z,0.15
2023-02-02T14:27:08.117Z,0.40
2023-02-02T14:29:39.605Z,0.10
2023-02-02T14:32:06.812Z,0.30
2023-02-02T14:34:41.700Z,0.30
2023-02-02T14:37:26.671Z,0.20
2023-02-02T14:40:01.856Z,0.20
2023-02-02T14:43:08.436Z,0.20
2023-02-02T14:45:45.930Z,0.10
2023-02-02T14:48:18.216Z,0.80
2023-02-02T14:50:50.729Z,0.20
2023-02-02T14:53:25.422Z,0.10
2023-02-02T14:55:55.797Z,0.10
2023-02-02T14:58:26.158Z,0.22
2023-02-02T15:01:25.143Z,0.13
2023-02-02T15:03:57.655Z,0.20
2023-02-02T15:06:28.461Z,0.35
2023-02-02T15:09:19.831Z,0.30
2023-02-02T15:12:05.197Z,0.47
2023-02-02T15:14:33.912Z,0.30
2023-02-02T15:17:26.859Z,0.40
2023-02-02T15:20:05.248Z,0.50
2023-02-02T15:22:53.065Z,0.50
2023-02-02T15:25:32.076Z,0.50
2023-02-02T15:28:08.326Z,0.80
2023-02-02T15:30:37.926Z,0.73
2023-02-02T15:33:26.748Z,1.23
2023-02-02T15:35:55.420Z,1.45
2023-02-02T15:38:30.632Z,0.95
2023-02-02T15:40:57.331Z,1.20
2023-02-02T15:43:27.543Z,1.35
2023-02-02T15:46:01.186Z,0.85
2023-02-02T15:48:32.012Z,1.30
2023-02-02T15:51:05.309Z,1.77
2023-02-02T15:53:43.599Z,1.00
2023-02-02T15:56:21.042Z,1.15
2023-02-02T15:58:50.066Z,1.20
2023-02-02T16:01:22.127Z,1.27
2023-02-02T16:04:13.196Z,1.02
2023-02-02T16:06:40.327Z,1.23
2023-02-02T16:09:07.452Z,1.05
2023-02-02T16:11:40.947Z,1.40
2023-02-02T16:14:17.728Z,1.40
2023-02-02T16:16:47.078Z,1.40
2023-02-02T16:19:23.988Z,1.53
2023-02-02T16:21:54.824Z,1.50
2023-02-02T16:24:31.710Z,1.50
2023-02-02T16:27:00.823Z,1.90
2023-02-02T16:29:28.840Z,1.70
2023-02-02T16:31:56.340Z,1.73
2023-02-02T16:34:55.750Z,1.58
2023-02-02T16:37:25.416Z,1.75
2023-02-02T16:39:51.939Z,1.73
2023-02-02T16:42:29.802Z,1.60
2023-02-02T16:44:57.624Z,2.00
2023-02-02T16:47:43.991Z,1.95
2023-02-02T16:50:10.719Z,1.77
2023-02-02T16:52:56.951Z,2.30
2023-02-02T16:55:24.142Z,2.50
2023-02-02T16:57:51.725Z,2.10
2023-02-02T17:00:25.266Z,1.98
2023-02-02T17:02:58.401Z,2.45
2023-02-02T17:05:25.175Z,2.22
2023-02-02T17:07:58.354Z,2.63
2023-02-02T17:10:36.922Z,2.33
2023-02-02T17:13:36.367Z,1.85
2023-02-02T17:16:03.032Z,1.63
2023-02-02T17:18:29.506Z,1.77
2023-02-02T17:20:58.693Z,1.90
2023-02-02T17:23:28.697Z,1.93
2023-02-02T17:25:55.654Z,1.58
2023-02-02T17:28:25.175Z,2.35
2023-02-02T17:31:02.958Z,2.33
2023-02-02T17:33:35.206Z,2.60
2023-02-02T17:36:02.537Z,4.93
2023-02-02T17:38:29.210Z,17.73
2023-02-02T17:41:01.104Z,25.92
2023-02-02T17:43:29.023Z,19.60
2023-02-02T17:45:55.775Z,12.52
2023-02-02T17:48:22.385Z,12.57
2023-02-02T17:50:48.948Z,10.60
2023-02-02T17:53:18.421Z,10.35
2023-02-02T17:55:45.976Z,9.77
2023-02-02T17:58:17.271Z,8.23
2023-02-02T18:00:46.182Z,8.47
2023-02-02T18:03:22.059Z,6.13
2023-02-02T18:05:48.968Z,4.50
2023-02-02T18:08:15.789Z,4.72
2023-02-02T18:10:43.258Z,4.50
2023-02-02T18:13:16.307Z,4.10
2023-02-02T18:15:43.301Z,3.33
2023-02-02T18:18:09.783Z,6.30
2023-02-02T18:20:36.376Z,3.63
2023-02-02T18:23:02.973Z,4.60
2023-02-02T18:25:29.516Z,4.70
2023-02-02T18:27:57.537Z,2.90
2023-02-02T18:30:25.614Z,3.53
2023-02-02T18:32:52.268Z,2.88
2023-02-02T18:35:18.923Z,2.90
2023-02-02T18:37:45.484Z,3.23
2023-02-02T18:40:12.730Z,2.75
2023-02-02T18:42:39.108Z,2.42
2023-02-02T18:45:06.427Z,2.85
2023-02-02T18:47:32.962Z,2.78
2023-02-02T18:49:59.391Z,2.33
2023-02-02T18:52:25.855Z,2.72
2023-02-02T18:54:52.280Z,2.78
2023-02-02T18:57:18.692Z,2.75
2023-02-02T18:59:45.349Z,3.38
2023-02-02T19:02:16.751Z,3.13
2023-02-02T19:05:03.749Z,3.88
2023-02-02T19:08:03.587Z,3.28
2023-02-02T19:10:30.144Z,3.15
2023-02-02T19:13:05.406Z,2.92
2023-02-02T19:15:36.460Z,3.20
2023-02-02T19:18:03.026Z,2.72
2023-02-02T19:20:30.795Z,3.20
2023-02-02T19:23:07.268Z,3.42
2023-02-02T19:25:33.639Z,2.88
2023-02-02T19:28:15.069Z,2.70
2023-02-02T19:30:45.158Z,2.97
2023-02-02T19:33:13.280Z,2.63
2023-02-02T19:35:39.991Z,3.22
2023-02-02T19:38:12.045Z,3.00
2023-02-02T19:40:39.857Z,2.83
2023-02-02T19:43:12.351Z,2.47
2023-02-02T19:45:39.934Z,2.55
2023-02-02T19:48:35.125Z,2.42
2023-02-02T19:51:39.472Z,2.60
2023-02-02T19:54:21.919Z,2.80
2023-02-02T19:56:49.953Z,2.60
2023-02-02T19:59:19.500Z,2.97
2023-02-02T20:01:47.806Z,2.63
2023-02-02T20:04:20.545Z,2.75
2023-02-02T20:06:58.586Z,2.23
2023-02-02T20:09:33.382Z,2.35
2023-02-02T20:12:00.463Z,2.97
2023-02-02T20:14:30.063Z,2.60
2023-02-02T20:17:04.960Z,2.75
2023-02-02T20:19:40.304Z,2.47
2023-02-02T20:22:37.800Z,2.45
2023-02-02T20:25:08.011Z,2.08
2023-02-02T20:27:34.599Z,2.00
2023-02-02T20:30:18.551Z,1.77
2023-02-02T20:32:45.589Z,2.17
2023-02-02T20:35:33.574Z,2.03
2023-02-02T20:38:00.074Z,2.35
2023-02-02T20:40:29.281Z,2.13
2023-02-02T20:42:58.212Z,1.50
2023-02-02T20:45:25.644Z,1.90
2023-02-02T20:47:52.473Z,1.92
2023-02-02T20:50:21.945Z,1.38
2023-02-02T20:52:51.129Z,2.80
2023-02-02T20:55:18.211Z,1.58
2023-02-02T20:57:44.636Z,1.70
2023-02-02T21:00:14.524Z,1.80
2023-02-02T21:02:40.932Z,1.55
2023-02-02T21:05:07.671Z,1.45
2023-02-02T21:07:34.277Z,1.75
2023-02-02T21:10:00.745Z,1.90
2023-02-02T21:12:27.217Z,2.03
2023-02-02T21:14:54.163Z,1.73
2023-02-02T21:17:20.900Z,1.50
2023-02-02T21:19:47.685Z,1.65
2023-02-02T21:22:14.394Z,1.00
2023-02-02T21:24:41.378Z,2.05
2023-02-02T21:27:08.937Z,1.25
2023-02-02T21:29:35.618Z,1.63
2023-02-02T21:32:03.369Z,1.60
2023-02-02T21:34:31.065Z,2.07
2023-02-02T21:36:58.199Z,1.65
2023-02-02T21:39:29.755Z,1.63
2023-02-02T21:42:08.451Z,1.73
2023-02-02T21:44:40.915Z,1.95
2023-02-02T21:47:28.087Z,1.77
2023-02-02T21:49:57.068Z,1.42
2023-02-02T21:52:29.631Z,1.70
2023-02-02T21:54:56.687Z,1.38
2023-02-02T21:57:35.784Z,1.00
2023-02-02T22:00:20.500Z,1.07
2023-02-02T22:02:48.745Z,1.58
2023-02-02T22:05:33.156Z,1.15
2023-02-02T22:08:02.583Z,1.00
2023-02-02T22:10:40.168Z,1.20
2023-02-02T22:13:25.029Z,1.20
2023-02-02T22:15:53.370Z,1.30
2023-02-02T22:18:24.969Z,1.42
2023-02-02T22:20:54.411Z,0.90
2023-02-02T22:23:23.010Z,2.17
2023-02-02T22:25:53.231Z,1.13
2023-02-02T22:28:39.899Z,0.68
2023-02-02T22:31:06.483Z,1.30
2023-02-02T22:33:32.909Z,0.82
2023-02-02T22:35:59.304Z,0.75
2023-02-02T22:38:25.819Z,1.20
2023-02-02T22:40:52.985Z,0.85
2023-02-02T22:43:20.848Z,0.80
2023-02-02T22:45:48.336Z,1.15
2023-02-02T22:48:15.466Z,1.02
2023-02-02T22:50:42.561Z,1.57
2023-02-02T22:53:09.327Z,0.70
2023-02-02T22:55:35.833Z,1.25
2023-02-02T22:58:02.369Z,1.45
2023-02-02T23:00:32.909Z,2.05
2023-02-02T23:03:00.050Z,1.60
2023-02-02T23:05:28.082Z,1.73
2023-02-02T23:07:55.228Z,1.35
2023-02-02T23:10:24.558Z,1.30
2023-02-02T23:12:54.028Z,1.63
2023-02-02T23:15:20.967Z,1.07
2023-02-02T23:17:47.774Z,1.35
2023-02-02T23:20:15.777Z,1.98
2023-02-02T23:22:42.309Z,1.50
2023-02-02T23:25:09.297Z,1.40
2023-02-02T23:27:36.301Z,1.47
2023-02-02T23:30:03.467Z,1.25
2023-02-02T23:32:29.873Z,1.40
2023-02-02T23:34:56.308Z,1.40
2023-02-02T23:37:22.880Z,1.77
2023-02-02T23:39:49.267Z,1.47
2023-02-02T23:42:15.983Z,1.70
2023-02-02T23:44:42.362Z,1.20
2023-02-02T23:47:09.811Z,1.13
2023-02-02T23:49:36.979Z,0.93
2023-02-02T23:52:03.764Z,1.00
2023-02-02T23:54:30.847Z,0.80
2023-02-02T23:56:57.861Z,0.70
2023-02-02T23:59:24.430Z,1.15
